Flight Track Log - Related Links

Times and Time Zones

All times are in EDT time to prevent confusion due to time zone crossing. See the FFT919 flight status page for this flight to view local times or setup timezone preferences in your user account.

Time Position Orientation Groundspeed Altitude Reporting Facility
EDT Latitude Longitude Course Direction KTS MPH feet Rate Location/Type
Sun 02:12:57 PM 40.2667 -74.8333 217° Southwest 105 121 900  Level Philadelphia TRACON
Sun 02:13:33 PM 40.2500 -74.8500 217° Southwest 145 167 2,000 1,500 Climbing Philadelphia TRACON
Sun 02:14:33 PM 40.2000 -74.9167 226° Southwest 265 305 3,300 1,950 Climbing Philadelphia TRACON
Sun 02:15:33 PM 40.1500 -74.9667 217° Southwest 260 299 5,900 1,850 Climbing Philadelphia TRACON
Sun 02:16:33 PM 40.0833 -75.0167 210° Southwest 264 304 7,000 942 Climbing Philadelphia TRACON
Sun 02:17:34 PM 40.0167 -75.0667 210° Southwest 274 315 7,800 1,500 Climbing Philadelphia TRACON
Sun 02:18:33 PM 39.9500 -75.1000 201° Southwest 281 323 10,000 1,100 Climbing Philadelphia TRACON
Sun 02:19:34 PM 39.8667 -75.1500 205° Southwest 327 376 10,000 554 Level Philadelphia TRACON
Sun 02:21:37 PM 39.7089 -75.2569 208° Southwest 334 384 11,700 1,246 Climbing Washington Center
Sun 02:22:37 PM 39.6236 -75.3058 204° Southwest 334 384 13,800 2,083 Climbing Washington Center
Sun 02:23:38 PM 39.5319 -75.3253 189° South 339 390 15,900 1,664 Climbing Washington Center
Sun 02:24:36 PM 39.4383 -75.3389 186° South 344 396 17,100 1,563 Climbing Washington Center
Sun 02:25:37 PM 39.3383 -75.3581 188° South 354 407 19,000 1,967 Climbing Washington Center
Sun 02:26:38 PM 39.2383 -75.3772 188° South 359 413 21,100 1,475 Climbing Washington Center
Sun 02:27:39 PM 39.1319 -75.3964 188° South 375 432 22,000 1,119 Climbing Washington Center
Sun 02:28:36 PM 39.0256 -75.4153 188° South 381 438 23,300 1,538 Climbing Washington Center
Sun 02:29:36 PM 38.9300 -75.4717 205° Southwest 387 445 25,000 1,537 Climbing Washington Center
Sun 02:30:37 PM 38.8300 -75.5331 206° Southwest 387 445 26,400 1,426 Climbing Washington Center
Sun 02:31:38 PM 38.7278 -75.5969 206° Southwest 407 468 27,900 1,488 Climbing Washington Center
Sun 02:32:38 PM 38.6236 -75.6633 206° Southwest 412 474 29,400 1,373 Climbing Washington Center
Sun 02:33:36 PM 38.5172 -75.7297 206° Southwest 419 482 30,600 1,261 Climbing Washington Center
Sun 02:34:37 PM 38.4106 -75.7958 206° Southwest 425 489 31,900 689 Climbing Washington Center
Sun 02:35:38 PM 38.3064 -75.8589 205° Southwest 425 489 32,000 50 Climbing Washington Center
Sun 02:36:36 PM 38.1978 -75.9247 205° Southwest 425 489 32,000  Level Washington Center
Sun 02:37:37 PM 38.0892 -75.9900 205° Southwest 425 489 32,000  Level Washington Center
Sun 02:38:38 PM 37.9825 -76.0553 206° Southwest 425 489 32,000  Level Washington Center
Sun 02:39:38 PM 37.8758 -76.1231 207° Southwest 430 495 32,000  Level Washington Center
Sun 02:40:36 PM 37.7672 -76.1881 205° Southwest 430 495 32,000 -50 Level Washington Center
Sun 02:41:37 PM 37.6625 -76.2528 206° Southwest 430 495 31,900 -738 Descending Washington Center
Sun 02:42:38 PM 37.5536 -76.3147 204° Southwest 430 495 30,500 -1,966 Descending Washington Center
Sun 02:43:36 PM 37.4489 -76.3819 207° Southwest 430 495 28,000 -2,319 Descending Washington Center
Sun 02:44:37 PM 37.3464 -76.4408 205° Southwest 425 489 25,900 -1,918 Descending Washington Center
Sun 02:45:38 PM 37.2542 -76.5050 209° Southwest 407 468 24,100 -1,008 Descending Washington Center
Sun 02:46:36 PM 37.1867 -76.6061 230° Southwest 381 438 23,900 -559 Descending Washington Center
Sun 02:47:36 PM 37.1231 -76.7067 232° Southwest 376 433 23,000 -857 Descending Washington Center
Sun 02:48:49 PM 37.0469 -76.8253 231° Southwest 376 433 22,000 -716 Descending Washington Center
Sun 02:49:50 PM 36.9831 -76.9231 231° Southwest 371 427 21,400 -605 Descending Washington Center
Sun 02:50:48 PM 36.9217 -77.0208 232° Southwest 371 427 20,800 -610 Descending Washington Center
Sun 02:51:48 PM 36.8600 -77.1183 232° Southwest 366 421 20,200 -397 Descending Washington Center
Sun 02:52:49 PM 36.7981 -77.2131 231° Southwest 366 421 20,000 -293 Descending Washington Center
Sun 02:53:51 PM 36.7342 -77.3128 231° Southwest 366 421 19,600 -700 Descending Washington Center
Sun 02:54:49 PM 36.6744 -77.4072 232° Southwest 361 415 18,600 -908 Descending Washington Center
Sun 02:55:50 PM 36.6147 -77.4939 229° Southwest 355 409 17,800 -908 Descending Washington Center
Sun 02:56:48 PM 36.5547 -77.5856 231° Southwest 355 409 16,800 -1,017 Descending Washington Center
Sun 02:57:48 PM 36.4947 -77.6794 232° Southwest 348 400 15,800 -992 Descending Washington Center
Sun 02:58:49 PM 36.4347 -77.7708 231° Southwest 348 400 14,800 -942 Descending Washington Center
Sun 02:59:49 PM 36.3831 -77.8494 231° Southwest 348 400 13,900 -990 Descending Washington Center
Sun 03:00:32 PM 36.3336 -77.9228 230° Southwest 331 381 13,100 -1,056 Descending Washington Center
Sun 03:01:37 PM 36.2714 -78.0164 231° Southwest 323 372 12,000 -1,143 Descending Washington Center
Sun 03:02:38 PM 36.2156 -78.0969 229° Southwest 317 365 10,700 -1,148 Descending Washington Center
Sun 03:03:32 PM 36.1803 -78.1858 244° Southwest 291 335 9,800 -1,252 Descending Washington Center
Sun 03:04:33 PM 36.1511 -78.2672 246° West 268 308 8,300 -1,512 Descending Washington Center
Sun 03:05:35 PM 36.1178 -78.3614 246° West 266 306 6,700 -1,241 Descending Washington Center
Sun 03:06:29 PM 36.0933 -78.4297 246° West 261 300 5,900 -1,465 Descending Washington Center
Sun 03:07:42 PM 36.0575 -78.5261 245° Southwest 247 284 3,600 -1,243 Descending Washington Center
Sun 03:08:49 PM 36.0328 -78.5997 247° West 248 285 3,000 -295 Descending Washington Center
Sun 03:09:44 PM 35.9939 -78.6547 229° Southwest 220 253 3,000 -491 Level Washington Center
Sun 03:10:39 PM 35.9592 -78.6994 226° Southwest 201 231 2,100 -881 Descending Washington Center
Sun 03:11:33 PM 35.9269 -78.7394 225° Southwest 164 189 1,400 -730 Descending Washington Center
Sun 03:12:34 PM 35.9011 -78.7717 225° Southwest 121 139 700 -689 Descending Washington Center
Sun 03:14:00 PM 35.8776 -78.7875 219° Southwest  Level Estimated

Login

Don't have an account? Register now (free) for customized features, flight alerts, and more!